sensor_id;sensor_type;location;lat;lon;timestamp;pressure;altitude;pressure_sealevel;temperature
74539;BMP180;66042;51.090;-115.340;2023-05-29T00:01:38;86056.60;;;40.56
74539;BMP180;66042;51.090;-115.340;2023-05-29T00:04:06;86049.20;;;40.90
74539;BMP180;66042;51.090;-115.340;2023-05-29T00:06:33;86065.80;;;40.58
74539;BMP180;66042;51.090;-115.340;2023-05-29T00:08:59;86059.00;;;39.18
74539;BMP180;66042;51.090;-115.340;2023-05-29T00:11:26;86072.20;;;38.56
74539;BMP180;66042;51.090;-115.340;2023-05-29T00:13:53;86065.20;;;37.70
74539;BMP180;66042;51.090;-115.340;2023-05-29T00:16:20;86067.80;;;36.94
74539;BMP180;66042;51.090;-115.340;2023-05-29T00:18:47;86068.60;;;35.88
74539;BMP180;66042;51.090;-115.340;2023-05-29T00:21:14;86066.80;;;34.94
74539;BMP180;66042;51.090;-115.340;2023-05-29T00:23:41;86059.60;;;34.10
74539;BMP180;66042;51.090;-115.340;2023-05-29T00:26:08;86050.00;;;34.70
74539;BMP180;66042;51.090;-115.340;2023-05-29T00:28:35;86061.00;;;34.52
74539;BMP180;66042;51.090;-115.340;2023-05-29T00:31:03;86058.20;;;33.94
74539;BMP180;66042;51.090;-115.340;2023-05-29T00:33:30;86057.60;;;33.28
74539;BMP180;66042;51.090;-115.340;2023-05-29T00:35:57;86055.20;;;32.42
74539;BMP180;66042;51.090;-115.340;2023-05-29T00:38:23;86055.80;;;31.90
74539;BMP180;66042;51.090;-115.340;2023-05-29T00:40:50;86049.20;;;31.30
74539;BMP180;66042;51.090;-115.340;2023-05-29T00:43:17;86049.00;;;30.90
74539;BMP180;66042;51.090;-115.340;2023-05-29T00:45:44;86048.80;;;30.50
74539;BMP180;66042;51.090;-115.340;2023-05-29T00:48:11;86045.80;;;30.10
74539;BMP180;66042;51.090;-115.340;2023-05-29T00:50:38;86043.00;;;29.80
74539;BMP180;66042;51.090;-115.340;2023-05-29T00:53:05;86034.40;;;29.50
74539;BMP180;66042;51.090;-115.340;2023-05-29T00:55:34;86035.80;;;29.10
74539;BMP180;66042;51.090;-115.340;2023-05-29T00:58:01;86037.60;;;28.72
74539;BMP180;66042;51.090;-115.340;2023-05-29T01:00:29;86038.00;;;28.40
74539;BMP180;66042;51.090;-115.340;2023-05-29T01:02:57;86033.00;;;28.20
74539;BMP180;66042;51.090;-115.340;2023-05-29T01:05:24;86033.20;;;27.88
74539;BMP180;66042;51.090;-115.340;2023-05-29T01:07:51;86037.40;;;27.70
74539;BMP180;66042;51.090;-115.340;2023-05-29T01:10:18;86037.00;;;27.60
74539;BMP180;66042;51.090;-115.340;2023-05-29T01:13:13;86035.00;;;27.42
74539;BMP180;66042;51.090;-115.340;2023-05-29T01:16:14;86036.40;;;27.10
74539;BMP180;66042;51.090;-115.340;2023-05-29T01:18:51;86029.60;;;26.72
74539;BMP180;66042;51.090;-115.340;2023-05-29T01:21:50;86030.00;;;26.40
74539;BMP180;66042;51.090;-115.340;2023-05-29T01:27:24;86027.80;;;25.80
74539;BMP180;66042;51.090;-115.340;2023-05-29T01:29:54;86032.00;;;25.54
74539;BMP180;66042;51.090;-115.340;2023-05-29T01:32:23;86033.40;;;25.56
74539;BMP180;66042;51.090;-115.340;2023-05-29T01:34:52;86035.40;;;25.52
74539;BMP180;66042;51.090;-115.340;2023-05-29T01:37:19;86033.20;;;25.32
74539;BMP180;66042;51.090;-115.340;2023-05-29T01:39:45;86032.80;;;25.64
74539;BMP180;66042;51.090;-115.340;2023-05-29T01:42:12;86027.60;;;26.62
74539;BMP180;66042;51.090;-115.340;2023-05-29T01:44:43;86032.80;;;27.88
74539;BMP180;66042;51.090;-115.340;2023-05-29T01:47:12;86037.00;;;28.22
74539;BMP180;66042;51.090;-115.340;2023-05-29T01:49:40;86040.00;;;27.92
74539;BMP180;66042;51.090;-115.340;2023-05-29T01:52:07;86048.00;;;27.56
74539;BMP180;66042;51.090;-115.340;2023-05-29T01:54:34;86043.80;;;27.10
74539;BMP180;66042;51.090;-115.340;2023-05-29T01:57:02;86044.80;;;26.80
74539;BMP180;66042;51.090;-115.340;2023-05-29T01:59:33;86045.80;;;26.44
74539;BMP180;66042;51.090;-115.340;2023-05-29T02:02:11;86044.20;;;26.02
74539;BMP180;66042;51.090;-115.340;2023-05-29T02:04:38;86044.60;;;25.70
74539;BMP180;66042;51.090;-115.340;2023-05-29T02:07:05;86048.40;;;25.40
74539;BMP180;66042;51.090;-115.340;2023-05-29T02:09:38;86053.40;;;25.14
74539;BMP180;66042;51.090;-115.340;2023-05-29T02:12:06;86054.80;;;25.00
74539;BMP180;66042;51.090;-115.340;2023-05-29T02:14:39;86055.00;;;24.80
74539;BMP180;66042;51.090;-115.340;2023-05-29T02:17:06;86062.00;;;24.62
74539;BMP180;66042;51.090;-115.340;2023-05-29T02:19:33;86061.00;;;24.40
74539;BMP180;66042;51.090;-115.340;2023-05-29T02:22:03;86064.00;;;24.20
74539;BMP180;66042;51.090;-115.340;2023-05-29T02:24:31;86070.40;;;24.10
74539;BMP180;66042;51.090;-115.340;2023-05-29T02:26:57;86071.40;;;24.00
74539;BMP180;66042;51.090;-115.340;2023-05-29T02:29:24;86069.40;;;23.82
74539;BMP180;66042;51.090;-115.340;2023-05-29T02:31:53;86067.20;;;23.70
74539;BMP180;66042;51.090;-115.340;2023-05-29T02:34:20;86069.40;;;23.60
74539;BMP180;66042;51.090;-115.340;2023-05-29T02:36:51;86073.60;;;23.40
74539;BMP180;66042;51.090;-115.340;2023-05-29T02:39:19;86070.00;;;23.30
74539;BMP180;66042;51.090;-115.340;2023-05-29T02:41:53;86078.80;;;23.20
74539;BMP180;66042;51.090;-115.340;2023-05-29T02:44:21;86082.20;;;23.02
74539;BMP180;66042;51.090;-115.340;2023-05-29T02:46:47;86074.00;;;22.94
74539;BMP180;66042;51.090;-115.340;2023-05-29T02:49:14;86080.40;;;22.84
74539;BMP180;66042;51.090;-115.340;2023-05-29T02:51:41;86083.40;;;22.70
74539;BMP180;66042;51.090;-115.340;2023-05-29T02:54:08;86086.60;;;22.60
74539;BMP180;66042;51.090;-115.340;2023-05-29T02:56:35;86084.80;;;22.40
74539;BMP180;66042;51.090;-115.340;2023-05-29T02:59:01;86087.60;;;22.30
74539;BMP180;66042;51.090;-115.340;2023-05-29T03:01:28;86095.60;;;22.20
74539;BMP180;66042;51.090;-115.340;2023-05-29T03:03:55;86090.60;;;22.10
74539;BMP180;66042;51.090;-115.340;2023-05-29T03:06:22;86087.60;;;22.00
74539;BMP180;66042;51.090;-115.340;2023-05-29T03:08:49;86097.40;;;21.90
74539;BMP180;66042;51.090;-115.340;2023-05-29T03:11:17;86098.20;;;21.80
74539;BMP180;66042;51.090;-115.340;2023-05-29T03:13:44;86100.60;;;21.74
74539;BMP180;66042;51.090;-115.340;2023-05-29T03:16:12;86109.00;;;21.70
74539;BMP180;66042;51.090;-115.340;2023-05-29T03:18:39;86110.60;;;21.60
74539;BMP180;66042;51.090;-115.340;2023-05-29T03:21:06;86113.60;;;21.50
74539;BMP180;66042;51.090;-115.340;2023-05-29T03:23:33;86113.00;;;21.40
74539;BMP180;66042;51.090;-115.340;2023-05-29T03:26:00;86116.80;;;21.30
74539;BMP180;66042;51.090;-115.340;2023-05-29T03:28:27;86121.40;;;21.20
74539;BMP180;66042;51.090;-115.340;2023-05-29T03:30:53;86130.00;;;21.10
74539;BMP180;66042;51.090;-115.340;2023-05-29T03:33:20;86134.20;;;20.90
74539;BMP180;66042;51.090;-115.340;2023-05-29T03:35:47;86135.00;;;20.80
74539;BMP180;66042;51.090;-115.340;2023-05-29T03:38:14;86144.40;;;20.70
74539;BMP180;66042;51.090;-115.340;2023-05-29T03:40:40;86141.80;;;20.70
74539;BMP180;66042;51.090;-115.340;2023-05-29T03:43:07;86150.00;;;20.60
74539;BMP180;66042;51.090;-115.340;2023-05-29T03:45:34;86152.80;;;20.50
74539;BMP180;66042;51.090;-115.340;2023-05-29T03:48:01;86155.60;;;20.40
74539;BMP180;66042;51.090;-115.340;2023-05-29T03:50:28;86162.40;;;20.30
74539;BMP180;66042;51.090;-115.340;2023-05-29T03:52:54;86165.60;;;20.26
74539;BMP180;66042;51.090;-115.340;2023-05-29T03:55:21;86168.80;;;20.20
74539;BMP180;66042;51.090;-115.340;2023-05-29T03:57:49;86169.80;;;20.18
74539;BMP180;66042;51.090;-115.340;2023-05-29T04:00:16;86174.20;;;20.10
74539;BMP180;66042;51.090;-115.340;2023-05-29T04:02:47;86174.80;;;20.10
74539;BMP180;66042;51.090;-115.340;2023-05-29T04:05:14;86180.40;;;20.00
74539;BMP180;66042;51.090;-115.340;2023-05-29T04:07:42;86179.80;;;19.92
74539;BMP180;66042;51.090;-115.340;2023-05-29T04:10:09;86183.00;;;19.90
74539;BMP180;66042;51.090;-115.340;2023-05-29T04:12:36;86187.20;;;19.80
74539;BMP180;66042;51.090;-115.340;2023-05-29T04:15:03;86189.60;;;19.80
74539;BMP180;66042;51.090;-115.340;2023-05-29T04:17:30;86187.40;;;19.70
74539;BMP180;66042;51.090;-115.340;2023-05-29T04:19:57;86191.20;;;19.64
74539;BMP180;66042;51.090;-115.340;2023-05-29T04:22:24;86194.20;;;19.60
74539;BMP180;66042;51.090;-115.340;2023-05-29T04:24:51;86191.40;;;19.58
74539;BMP180;66042;51.090;-115.340;2023-05-29T04:27:18;86188.20;;;19.50
74539;BMP180;66042;51.090;-115.340;2023-05-29T04:29:44;86193.80;;;19.50
74539;BMP180;66042;51.090;-115.340;2023-05-29T04:32:11;86197.40;;;19.40
74539;BMP180;66042;51.090;-115.340;2023-05-29T04:34:40;86199.60;;;19.40
74539;BMP180;66042;51.090;-115.340;2023-05-29T04:37:11;86201.00;;;19.30
74539;BMP180;66042;51.090;-115.340;2023-05-29T04:39:40;86198.80;;;19.30
74539;BMP180;66042;51.090;-115.340;2023-05-29T04:42:07;86205.00;;;19.20
74539;BMP180;66042;51.090;-115.340;2023-05-29T04:44:34;86202.60;;;19.20
74539;BMP180;66042;51.090;-115.340;2023-05-29T04:47:01;86204.40;;;19.20
74539;BMP180;66042;51.090;-115.340;2023-05-29T04:49:30;86206.60;;;19.10
74539;BMP180;66042;51.090;-115.340;2023-05-29T04:52:03;86210.60;;;19.10
74539;BMP180;66042;51.090;-115.340;2023-05-29T04:54:33;86212.00;;;19.00
74539;BMP180;66042;51.090;-115.340;2023-05-29T04:57:02;86211.20;;;19.00
74539;BMP180;66042;51.090;-115.340;2023-05-29T04:59:30;86206.40;;;18.90
74539;BMP180;66042;51.090;-115.340;2023-05-29T05:01:57;86212.20;;;18.90
74539;BMP180;66042;51.090;-115.340;2023-05-29T05:04:24;86215.20;;;18.80
74539;BMP180;66042;51.090;-115.340;2023-05-29T05:06:51;86218.40;;;18.80
74539;BMP180;66042;51.090;-115.340;2023-05-29T05:09:18;86223.00;;;18.70
74539;BMP180;66042;51.090;-115.340;2023-05-29T05:11:45;86230.80;;;18.70
74539;BMP180;66042;51.090;-115.340;2023-05-29T05:14:11;86237.80;;;18.70
74539;BMP180;66042;51.090;-115.340;2023-05-29T05:16:38;86243.20;;;18.60
74539;BMP180;66042;51.090;-115.340;2023-05-29T05:19:05;86245.00;;;18.60
74539;BMP180;66042;51.090;-115.340;2023-05-29T05:21:32;86251.80;;;18.60
74539;BMP180;66042;51.090;-115.340;2023-05-29T05:24:00;86251.80;;;18.58
74539;BMP180;66042;51.090;-115.340;2023-05-29T05:26:27;86256.00;;;18.58
74539;BMP180;66042;51.090;-115.340;2023-05-29T05:28:54;86253.80;;;18.52
74539;BMP180;66042;51.090;-115.340;2023-05-29T05:31:21;86254.20;;;18.50
74539;BMP180;66042;51.090;-115.340;2023-05-29T05:33:49;86252.80;;;18.50
74539;BMP180;66042;51.090;-115.340;2023-05-29T05:36:18;86253.40;;;18.40
74539;BMP180;66042;51.090;-115.340;2023-05-29T05:38:45;86259.80;;;18.40
74539;BMP180;66042;51.090;-115.340;2023-05-29T05:41:12;86258.60;;;18.32
74539;BMP180;66042;51.090;-115.340;2023-05-29T05:43:39;86261.00;;;18.30
74539;BMP180;66042;51.090;-115.340;2023-05-29T05:46:06;86263.20;;;18.20
74539;BMP180;66042;51.090;-115.340;2023-05-29T05:48:33;86260.40;;;18.20
74539;BMP180;66042;51.090;-115.340;2023-05-29T05:51:00;86262.00;;;18.20
74539;BMP180;66042;51.090;-115.340;2023-05-29T05:53:27;86265.60;;;18.10
74539;BMP180;66042;51.090;-115.340;2023-05-29T05:55:53;86270.20;;;18.10
74539;BMP180;66042;51.090;-115.340;2023-05-29T05:58:21;86271.80;;;18.06
74539;BMP180;66042;51.090;-115.340;2023-05-29T06:00:48;86266.00;;;18.00
74539;BMP180;66042;51.090;-115.340;2023-05-29T06:03:19;86272.60;;;18.00
74539;BMP180;66042;51.090;-115.340;2023-05-29T06:05:47;86270.40;;;17.90
74539;BMP180;66042;51.090;-115.340;2023-05-29T06:08:14;86269.00;;;17.90
74539;BMP180;66042;51.090;-115.340;2023-05-29T06:10:42;86271.20;;;17.90
74539;BMP180;66042;51.090;-115.340;2023-05-29T06:13:10;86273.00;;;17.80
74539;BMP180;66042;51.090;-115.340;2023-05-29T06:15:37;86275.80;;;17.80
74539;BMP180;66042;51.090;-115.340;2023-05-29T06:18:05;86277.80;;;17.80
74539;BMP180;66042;51.090;-115.340;2023-05-29T06:20:32;86277.20;;;17.78
74539;BMP180;66042;51.090;-115.340;2023-05-29T06:22:58;86277.40;;;17.70
74539;BMP180;66042;51.090;-115.340;2023-05-29T06:25:26;86278.20;;;17.70
74539;BMP180;66042;51.090;-115.340;2023-05-29T06:28:03;86272.60;;;17.62
74539;BMP180;66042;51.090;-115.340;2023-05-29T06:30:32;86268.60;;;17.60
74539;BMP180;66042;51.090;-115.340;2023-05-29T06:32:59;86274.00;;;17.50
74539;BMP180;66042;51.090;-115.340;2023-05-29T06:35:26;86276.20;;;17.50
74539;BMP180;66042;51.090;-115.340;2023-05-29T06:37:53;86275.80;;;17.40
74539;BMP180;66042;51.090;-115.340;2023-05-29T06:40:21;86272.80;;;17.40
74539;BMP180;66042;51.090;-115.340;2023-05-29T06:42:48;86274.60;;;17.30
74539;BMP180;66042;51.090;-115.340;2023-05-29T06:45:15;86269.80;;;17.28
74539;BMP180;66042;51.090;-115.340;2023-05-29T06:47:43;86270.60;;;17.20
74539;BMP180;66042;51.090;-115.340;2023-05-29T06:50:10;86276.80;;;17.10
74539;BMP180;66042;51.090;-115.340;2023-05-29T06:52:37;86270.20;;;17.10
74539;BMP180;66042;51.090;-115.340;2023-05-29T06:55:05;86268.20;;;17.00
74539;BMP180;66042;51.090;-115.340;2023-05-29T06:57:32;86269.40;;;16.98
74539;BMP180;66042;51.090;-115.340;2023-05-29T06:59:59;86271.80;;;16.90
74539;BMP180;66042;51.090;-115.340;2023-05-29T07:02:26;86262.20;;;16.80
74539;BMP180;66042;51.090;-115.340;2023-05-29T07:04:53;86263.80;;;16.80
74539;BMP180;66042;51.090;-115.340;2023-05-29T07:07:19;86265.00;;;16.70
74539;BMP180;66042;51.090;-115.340;2023-05-29T07:09:46;86268.80;;;16.70
74539;BMP180;66042;51.090;-115.340;2023-05-29T07:12:13;86269.20;;;16.60
74539;BMP180;66042;51.090;-115.340;2023-05-29T07:14:40;86266.80;;;16.50
74539;BMP180;66042;51.090;-115.340;2023-05-29T07:17:07;86272.20;;;16.50
74539;BMP180;66042;51.090;-115.340;2023-05-29T07:19:34;86267.80;;;16.40
74539;BMP180;66042;51.090;-115.340;2023-05-29T07:22:01;86270.80;;;16.30
74539;BMP180;66042;51.090;-115.340;2023-05-29T07:24:28;86268.40;;;16.30
74539;BMP180;66042;51.090;-115.340;2023-05-29T07:26:55;86263.60;;;16.20
74539;BMP180;66042;51.090;-115.340;2023-05-29T07:29:22;86266.60;;;16.10
74539;BMP180;66042;51.090;-115.340;2023-05-29T07:31:52;86266.20;;;16.10
74539;BMP180;66042;51.090;-115.340;2023-05-29T07:34:19;86263.80;;;16.00
74539;BMP180;66042;51.090;-115.340;2023-05-29T07:37:02;86264.80;;;15.90
74539;BMP180;66042;51.090;-115.340;2023-05-29T07:39:34;86262.80;;;15.88
74539;BMP180;66042;51.090;-115.340;2023-05-29T07:42:02;86269.20;;;15.80
74539;BMP180;66042;51.090;-115.340;2023-05-29T07:44:30;86265.60;;;15.70
74539;BMP180;66042;51.090;-115.340;2023-05-29T07:46:57;86263.60;;;15.70
74539;BMP180;66042;51.090;-115.340;2023-05-29T07:49:24;86264.40;;;15.60
74539;BMP180;66042;51.090;-115.340;2023-05-29T07:51:51;86263.20;;;15.50
74539;BMP180;66042;51.090;-115.340;2023-05-29T07:54:18;86264.20;;;15.40
74539;BMP180;66042;51.090;-115.340;2023-05-29T07:56:47;86267.20;;;15.30
74539;BMP180;66042;51.090;-115.340;2023-05-29T07:59:14;86270.80;;;15.30
74539;BMP180;66042;51.090;-115.340;2023-05-29T08:01:41;86269.80;;;15.20
74539;BMP180;66042;51.090;-115.340;2023-05-29T08:04:11;86271.00;;;15.18
74539;BMP180;66042;51.090;-115.340;2023-05-29T08:06:38;86270.80;;;15.00
74539;BMP180;66042;51.090;-115.340;2023-05-29T08:09:09;86266.40;;;14.90
74539;BMP180;66042;51.090;-115.340;2023-05-29T08:11:37;86264.80;;;14.90
74539;BMP180;66042;51.090;-115.340;2023-05-29T08:14:04;86264.00;;;14.80
74539;BMP180;66042;51.090;-115.340;2023-05-29T08:16:31;86267.40;;;14.80
74539;BMP180;66042;51.090;-115.340;2023-05-29T08:18:58;86268.60;;;14.70
74539;BMP180;66042;51.090;-115.340;2023-05-29T08:21:25;86266.00;;;14.70
74539;BMP180;66042;51.090;-115.340;2023-05-29T08:23:52;86265.20;;;14.60
74539;BMP180;66042;51.090;-115.340;2023-05-29T08:26:19;86271.00;;;14.60
74539;BMP180;66042;51.090;-115.340;2023-05-29T08:28:47;86272.20;;;14.58
74539;BMP180;66042;51.090;-115.340;2023-05-29T08:31:14;86271.60;;;14.50
74539;BMP180;66042;51.090;-115.340;2023-05-29T08:33:41;86269.80;;;14.48
74539;BMP180;66042;51.090;-115.340;2023-05-29T08:36:08;86271.40;;;14.40
74539;BMP180;66042;51.090;-115.340;2023-05-29T08:38:36;86271.60;;;14.30
74539;BMP180;66042;51.090;-115.340;2023-05-29T08:41:04;86266.80;;;14.30
74539;BMP180;66042;51.090;-115.340;2023-05-29T08:43:34;86266.80;;;14.22
74539;BMP180;66042;51.090;-115.340;2023-05-29T08:46:03;86269.00;;;14.10
74539;BMP180;66042;51.090;-115.340;2023-05-29T08:48:31;86270.40;;;14.10
74539;BMP180;66042;51.090;-115.340;2023-05-29T08:51:02;86265.20;;;14.10
74539;BMP180;66042;51.090;-115.340;2023-05-29T08:53:29;86265.00;;;14.00
74539;BMP180;66042;51.090;-115.340;2023-05-29T08:55:58;86256.80;;;14.00
74539;BMP180;66042;51.090;-115.340;2023-05-29T08:58:26;86257.80;;;14.00
74539;BMP180;66042;51.090;-115.340;2023-05-29T09:00:53;86260.80;;;13.92
74539;BMP180;66042;51.090;-115.340;2023-05-29T09:03:21;86257.80;;;13.90
74539;BMP180;66042;51.090;-115.340;2023-05-29T09:05:48;86258.80;;;13.80
74539;BMP180;66042;51.090;-115.340;2023-05-29T09:08:16;86259.40;;;13.80
74539;BMP180;66042;51.090;-115.340;2023-05-29T09:10:44;86260.00;;;13.70
74539;BMP180;66042;51.090;-115.340;2023-05-29T09:13:14;86261.00;;;13.70
74539;BMP180;66042;51.090;-115.340;2023-05-29T09:15:42;86254.40;;;13.70
74539;BMP180;66042;51.090;-115.340;2023-05-29T09:18:09;86260.00;;;13.60
74539;BMP180;66042;51.090;-115.340;2023-05-29T09:20:36;86256.60;;;13.60
74539;BMP180;66042;51.090;-115.340;2023-05-29T09:23:08;86256.00;;;13.60
74539;BMP180;66042;51.090;-115.340;2023-05-29T09:25:43;86253.80;;;13.50
74539;BMP180;66042;51.090;-115.340;2023-05-29T09:28:10;86259.40;;;13.46
74539;BMP180;66042;51.090;-115.340;2023-05-29T09:30:47;86261.40;;;13.40
74539;BMP180;66042;51.090;-115.340;2023-05-29T09:33:15;86256.40;;;13.40
74539;BMP180;66042;51.090;-115.340;2023-05-29T09:35:48;86254.60;;;13.30
74539;BMP180;66042;51.090;-115.340;2023-05-29T09:38:18;86253.80;;;13.30
74539;BMP180;66042;51.090;-115.340;2023-05-29T09:40:46;86248.00;;;13.30
74539;BMP180;66042;51.090;-115.340;2023-05-29T09:43:16;86251.80;;;13.28
74539;BMP180;66042;51.090;-115.340;2023-05-29T09:45:46;86248.80;;;13.20
74539;BMP180;66042;51.090;-115.340;2023-05-29T09:48:15;86243.80;;;13.20
74539;BMP180;66042;51.090;-115.340;2023-05-29T09:50:44;86244.60;;;13.10
74539;BMP180;66042;51.090;-115.340;2023-05-29T09:53:25;86245.20;;;13.02
74539;BMP180;66042;51.090;-115.340;2023-05-29T09:55:56;86247.40;;;13.00
74539;BMP180;66042;51.090;-115.340;2023-05-29T09:58:25;86243.80;;;13.00
74539;BMP180;66042;51.090;-115.340;2023-05-29T10:00:53;86246.60;;;12.96
74539;BMP180;66042;51.090;-115.340;2023-05-29T10:03:20;86245.80;;;12.90
74539;BMP180;66042;51.090;-115.340;2023-05-29T10:05:54;86247.40;;;12.80
74539;BMP180;66042;51.090;-115.340;2023-05-29T10:08:27;86248.20;;;12.80
74539;BMP180;66042;51.090;-115.340;2023-05-29T10:11:03;86253.40;;;12.68
74539;BMP180;66042;51.090;-115.340;2023-05-29T10:13:39;86252.00;;;12.64
74539;BMP180;66042;51.090;-115.340;2023-05-29T10:16:11;86255.00;;;12.60
74539;BMP180;66042;51.090;-115.340;2023-05-29T10:18:50;86254.20;;;12.60
74539;BMP180;66042;51.090;-115.340;2023-05-29T10:21:22;86253.80;;;12.60
74539;BMP180;66042;51.090;-115.340;2023-05-29T10:23:51;86253.20;;;12.60
74539;BMP180;66042;51.090;-115.340;2023-05-29T10:26:27;86253.00;;;12.58
74539;BMP180;66042;51.090;-115.340;2023-05-29T10:29:23;86247.60;;;12.50
74539;BMP180;66042;51.090;-115.340;2023-05-29T10:38:15;86243.60;;;12.40
74539;BMP180;66042;51.090;-115.340;2023-05-29T10:40:45;86247.20;;;12.24
74539;BMP180;66042;51.090;-115.340;2023-05-29T10:43:34;86245.60;;;12.20
74539;BMP180;66042;51.090;-115.340;2023-05-29T10:46:02;86253.20;;;12.20
74539;BMP180;66042;51.090;-115.340;2023-05-29T10:48:39;86248.80;;;12.20
74539;BMP180;66042;51.090;-115.340;2023-05-29T10:51:08;86253.20;;;12.14
74539;BMP180;66042;51.090;-115.340;2023-05-29T10:53:50;86251.60;;;12.10
74539;BMP180;66042;51.090;-115.340;2023-05-29T10:56:24;86245.20;;;12.10
74539;BMP180;66042;51.090;-115.340;2023-05-29T10:58:58;86247.60;;;12.00
74539;BMP180;66042;51.090;-115.340;2023-05-29T11:01:28;86249.00;;;12.00
74539;BMP180;66042;51.090;-115.340;2023-05-29T11:06:44;86246.80;;;12.00
74539;BMP180;66042;51.090;-115.340;2023-05-29T11:12:26;86249.60;;;11.90
74539;BMP180;66042;51.090;-115.340;2023-05-29T11:15:10;86254.80;;;11.88
74539;BMP180;66042;51.090;-115.340;2023-05-29T11:23:16;86265.00;;;11.80
74539;BMP180;66042;51.090;-115.340;2023-05-29T11:25:46;86265.80;;;11.70
74539;BMP180;66042;51.090;-115.340;2023-05-29T11:28:14;86267.60;;;11.60
74539;BMP180;66042;51.090;-115.340;2023-05-29T11:30:49;86266.20;;;11.50
74539;BMP180;66042;51.090;-115.340;2023-05-29T11:33:25;86265.00;;;11.50
74539;BMP180;66042;51.090;-115.340;2023-05-29T11:36:00;86265.40;;;11.50
74539;BMP180;66042;51.090;-115.340;2023-05-29T11:38:28;86266.00;;;11.50
74539;BMP180;66042;51.090;-115.340;2023-05-29T11:40:56;86272.20;;;11.40
74539;BMP180;66042;51.090;-115.340;2023-05-29T11:43:25;86272.00;;;11.40
74539;BMP180;66042;51.090;-115.340;2023-05-29T11:45:52;86270.20;;;11.40
74539;BMP180;66042;51.090;-115.340;2023-05-29T11:48:20;86264.80;;;11.40
74539;BMP180;66042;51.090;-115.340;2023-05-29T11:50:48;86266.60;;;11.34
74539;BMP180;66042;51.090;-115.340;2023-05-29T11:53:15;86264.40;;;11.30
74539;BMP180;66042;51.090;-115.340;2023-05-29T11:55:43;86267.00;;;11.20
74539;BMP180;66042;51.090;-115.340;2023-05-29T11:58:10;86266.00;;;11.10
74539;BMP180;66042;51.090;-115.340;2023-05-29T12:00:39;86273.60;;;11.02
74539;BMP180;66042;51.090;-115.340;2023-05-29T12:03:07;86275.20;;;10.90
74539;BMP180;66042;51.090;-115.340;2023-05-29T12:05:48;86272.60;;;10.90
74539;BMP180;66042;51.090;-115.340;2023-05-29T12:08:24;86269.00;;;10.90
74539;BMP180;66042;51.090;-115.340;2023-05-29T12:10:53;86274.40;;;10.90
74539;BMP180;66042;51.090;-115.340;2023-05-29T12:13:21;86281.60;;;10.90
74539;BMP180;66042;51.090;-115.340;2023-05-29T12:15:52;86278.20;;;10.80
74539;BMP180;66042;51.090;-115.340;2023-05-29T12:18:20;86268.80;;;10.88
74539;BMP180;66042;51.090;-115.340;2023-05-29T12:20:48;86273.80;;;10.86
74539;BMP180;66042;51.090;-115.340;2023-05-29T12:23:17;86274.80;;;10.88
74539;BMP180;66042;51.090;-115.340;2023-05-29T12:25:47;86274.00;;;10.84
74539;BMP180;66042;51.090;-115.340;2023-05-29T12:28:18;86270.80;;;10.80
74539;BMP180;66042;51.090;-115.340;2023-05-29T12:30:45;86274.40;;;10.70
74539;BMP180;66042;51.090;-115.340;2023-05-29T12:33:30;86276.00;;;10.70
74539;BMP180;66042;51.090;-115.340;2023-05-29T12:36:09;86275.00;;;10.78
74539;BMP180;66042;51.090;-115.340;2023-05-29T12:38:56;86279.40;;;10.80
74539;BMP180;66042;51.090;-115.340;2023-05-29T12:41:29;86277.20;;;10.90
74539;BMP180;66042;51.090;-115.340;2023-05-29T12:43:57;86278.80;;;10.90
74539;BMP180;66042;51.090;-115.340;2023-05-29T12:46:26;86271.00;;;11.00
74539;BMP180;66042;51.090;-115.340;2023-05-29T12:48:55;86271.40;;;10.96
74539;BMP180;66042;51.090;-115.340;2023-05-29T12:51:27;86269.00;;;10.98
74539;BMP180;66042;51.090;-115.340;2023-05-29T12:53:54;86268.80;;;10.94
74539;BMP180;66042;51.090;-115.340;2023-05-29T12:56:27;86266.40;;;10.90
74539;BMP180;66042;51.090;-115.340;2023-05-29T12:58:54;86268.20;;;10.80
74539;BMP180;66042;51.090;-115.340;2023-05-29T13:01:21;86259.40;;;10.90
74539;BMP180;66042;51.090;-115.340;2023-05-29T13:03:50;86261.00;;;10.90
74539;BMP180;66042;51.090;-115.340;2023-05-29T13:06:17;86260.60;;;10.90
74539;BMP180;66042;51.090;-115.340;2023-05-29T13:08:44;86265.00;;;10.90
74539;BMP180;66042;51.090;-115.340;2023-05-29T13:11:11;86271.80;;;10.90
74539;BMP180;66042;51.090;-115.340;2023-05-29T13:13:37;86275.00;;;10.94
74539;BMP180;66042;51.090;-115.340;2023-05-29T13:16:05;86274.00;;;11.00
74539;BMP180;66042;51.090;-115.340;2023-05-29T13:18:33;86270.20;;;11.00
74539;BMP180;66042;51.090;-115.340;2023-05-29T13:21:01;86267.00;;;11.06
74539;BMP180;66042;51.090;-115.340;2023-05-29T13:23:28;86275.80;;;11.10
74539;BMP180;66042;51.090;-115.340;2023-05-29T13:25:54;86281.20;;;11.16
74539;BMP180;66042;51.090;-115.340;2023-05-29T13:28:21;86274.80;;;11.20
74539;BMP180;66042;51.090;-115.340;2023-05-29T13:30:50;86267.80;;;11.20
74539;BMP180;66042;51.090;-115.340;2023-05-29T13:33:17;86269.40;;;11.24
74539;BMP180;66042;51.090;-115.340;2023-05-29T13:35:44;86275.60;;;11.30
74539;BMP180;66042;51.090;-115.340;2023-05-29T13:38:11;86271.60;;;11.30
74539;BMP180;66042;51.090;-115.340;2023-05-29T13:40:38;86268.00;;;11.30
74539;BMP180;66042;51.090;-115.340;2023-05-29T13:43:05;86265.60;;;11.30
74539;BMP180;66042;51.090;-115.340;2023-05-29T13:45:32;86265.60;;;11.40
74539;BMP180;66042;51.090;-115.340;2023-05-29T13:47:59;86264.40;;;11.40
74539;BMP180;66042;51.090;-115.340;2023-05-29T13:50:26;86264.80;;;11.40
74539;BMP180;66042;51.090;-115.340;2023-05-29T13:52:53;86265.40;;;11.40
74539;BMP180;66042;51.090;-115.340;2023-05-29T13:55:20;86260.80;;;11.40
74539;BMP180;66042;51.090;-115.340;2023-05-29T13:57:47;86265.60;;;11.50
74539;BMP180;66042;51.090;-115.340;2023-05-29T14:00:14;86263.00;;;11.50
74539;BMP180;66042;51.090;-115.340;2023-05-29T14:02:41;86268.60;;;11.50